Time;durP1;ratioP1;P1;durP2;ratioP2;P2;SDS_P1;SDS_P2;PMS_P1;PMS_P2;Temp;Humidity;BMP_temperature;BMP_pressure;BME280_temperature;BME280_humidity;BME280_pressure;Samples;Min_cycle;Max_cycle;Signal;HPM_P1;HPM_P2
2023/04/25 00:00:57;;;;;;;;;;;;;;;17.55;53.03;100246.91;5017786;28;1965;-51
2023/04/25 00:03:24;;;;;;;;;;;;;;;16.70;55.24;100242.78;5018221;28;1051;-52
2023/04/25 00:05:51;;;;;;;;;;;;;;;16.34;55.87;100241.16;5017516;28;1095;-50
2023/04/25 00:08:17;;;;;;;;;;;;;;;16.17;55.85;100241.53;5018240;28;1131;-51
2023/04/25 00:10:42;;;;;;;;;;;;;;;16.04;55.85;100234.75;5018578;28;1221;-51
2023/04/25 00:13:08;;;;;;;;;;;;;;;17.27;54.38;100241.19;5017677;28;1115;-51
2023/04/25 00:15:34;;;;;;;;;;;;;;;17.43;53.29;100239.09;5017925;28;1155;-51
2023/04/25 00:17:59;;;;;;;;;;;;;;;16.67;55.25;100230.47;5017965;28;1107;-50
2023/04/25 00:20:25;;;;;;;;;;;;;;;16.38;55.41;100238.63;5017864;28;1050;-52
2023/04/25 00:22:52;;;;;;;;;;;;;;;16.24;55.39;100230.22;5027983;28;1965;-49
2023/04/25 00:25:18;;;;;;;;;;;;;;;16.09;55.74;100228.41;5022132;28;1130;-50
2023/04/25 00:27:43;;;;;;;;;;;;;;;16.90;55.23;100219.84;5017571;28;1134;-52
2023/04/25 00:30:09;;;;;;;;;;;;;;;17.01;54.50;100212.34;5017558;28;1127;-51
2023/04/25 00:32:34;;;;;;;;;;;;;;;16.45;55.59;100213.63;5017568;28;1189;-53
2023/04/25 00:35:00;;;;;;;;;;;;;;;16.20;56.02;100209.94;5018289;28;2039;-52
2023/04/25 00:37:26;;;;;;;;;;;;;;;17.15;54.69;100212.47;5017705;28;1160;-51
2023/04/25 00:39:53;;;;;;;;;;;;;;;17.25;53.85;100215.09;5017446;28;1127;-54
2023/04/25 00:42:19;;;;;;;;;;;;;;;16.55;55.55;100216.28;5016139;28;1902;-52
2023/04/25 00:44:46;;;;;;;;;;;;;;;16.36;55.58;100219.72;5016113;28;1067;-53
2023/04/25 00:47:12;;;;;;;;;;;;;;;16.14;55.61;100205.63;5022021;28;1269;-54
2023/04/25 00:49:37;;;;;;;;;;;;;;;17.21;54.41;100216.81;5021620;28;1046;-54
2023/04/25 00:52:03;;;;;;;;;;;;;;;17.28;53.87;100214.53;5017408;28;1149;-53
2023/04/25 00:54:30;;;;;;;;;;;;;;;16.58;55.44;100207.50;5017111;28;1023;-54
2023/04/25 00:56:56;;;;;;;;;;;;;;;16.32;55.63;100199.44;5015583;28;1072;-52
2023/04/25 00:59:22;;;;;;;;;;;;;;;16.17;55.62;100194.06;5020341;28;1155;-51
2023/04/25 01:01:47;;;;;;;;;;;;;;;17.35;54.04;100198.50;5017218;28;1981;-54
2023/04/25 01:04:13;;;;;;;;;;;;;;;16.92;54.69;100195.69;5017192;28;1187;-55
2023/04/25 01:06:38;;;;;;;;;;;;;;;16.43;55.55;100198.25;5017081;28;1202;-54
2023/04/25 01:09:05;;;;;;;;;;;;;;;16.25;55.51;100179.75;5015439;28;1092;-49
2023/04/25 01:11:30;;;;;;;;;;;;;;;17.42;53.62;100176.97;5022169;28;1098;-49
2023/04/25 01:13:56;;;;;;;;;;;;;;;16.98;54.65;100185.47;5021236;28;1157;-52
2023/04/25 01:16:23;;;;;;;;;;;;;;;16.48;55.30;100175.47;5015723;28;1521;-47
2023/04/25 01:18:50;;;;;;;;;;;;;;;16.37;55.62;100177.47;5015701;28;1160;-49
2023/04/25 01:21:15;;;;;;;;;;;;;;;17.54;53.13;100162.81;5019533;28;1971;-50
2023/04/25 01:23:41;;;;;;;;;;;;;;;16.71;54.93;100162.09;5025134;28;1214;-47
2023/04/25 01:26:07;;;;;;;;;;;;;;;16.36;55.56;100164.84;5015631;28;1165;-51
2023/04/25 01:28:33;;;;;;;;;;;;;;;16.17;55.76;100156.50;5015187;28;1108;-53
2023/04/25 01:30:59;;;;;;;;;;;;;;;16.07;55.66;100154.66;5015105;28;1235;-53
2023/04/25 01:33:24;;;;;;;;;;;;;;;16.80;55.00;100151.28;4999105;28;1418;-52
2023/04/25 01:35:50;;;;;;;;;;;;;;;17.18;54.06;100148.69;5023612;28;1035;-52
2023/04/25 01:38:19;;;;;;;;;;;;;;;16.50;55.53;100158.72;5020271;28;1067;-53
2023/04/25 01:40:44;;;;;;;;;;;;;;;16.24;55.90;100158.91;4998536;28;1903;-51
2023/04/25 01:43:11;;;;;;;;;;;;;;;16.76;55.39;100160.09;5016318;28;1067;-53
2023/04/25 01:45:40;;;;;;;;;;;;;;;17.17;53.95;100147.06;5016436;28;1239;-47
2023/04/25 01:48:10;;;;;;;;;;;;;;;16.50;55.42;100144.97;5019622;28;2165;-52
2023/04/25 01:50:36;;;;;;;;;;;;;;;16.23;55.90;100136.16;5016495;28;1059;-50
2023/04/25 01:53:02;;;;;;;;;;;;;;;16.06;55.78;100135.72;5015118;28;2022;-53
2023/04/25 01:55:28;;;;;;;;;;;;;;;16.80;55.18;100134.81;5015043;28;1198;-51
2023/04/25 01:58:02;;;;;;;;;;;;;;;17.27;53.89;100130.47;5014756;28;1187;-54
2023/04/25 02:00:47;;;;;;;;;;;;;;;16.48;55.41;100125.22;5028980;28;1965;-54
2023/04/25 02:03:13;;;;;;;;;;;;;;;16.22;55.76;100117.25;5016392;28;1025;-53
2023/04/25 02:05:38;;;;;;;;;;;;;;;17.42;54.00;100119.25;5015297;28;1123;-51
2023/04/25 02:08:06;;;;;;;;;;;;;;;17.00;54.41;100109.91;5018985;28;1122;-54
2023/04/25 02:10:32;;;;;;;;;;;;;;;16.49;55.32;100105.72;5014794;28;1307;-52
2023/04/25 02:13:24;;;;;;;;;;;;;;;16.23;55.73;100110.66;5020604;28;1167;-54
2023/04/25 02:15:59;;;;;;;;;;;;;;;17.28;54.24;100116.41;5029717;28;1067;-54
2023/04/25 02:18:26;;;;;;;;;;;;;;;16.97;54.45;100110.50;5016331;28;1163;-51
2023/04/25 02:20:51;;;;;;;;;;;;;;;16.44;55.62;100114.03;5030929;28;1910;-54
2023/04/25 02:23:18;;;;;;;;;;;;;;;16.24;55.87;100104.03;5023258;28;1198;-54
2023/04/25 02:25:44;;;;;;;;;;;;;;;16.64;55.69;100113.00;5016240;28;880;-54
2023/04/25 02:28:10;;;;;;;;;;;;;;;17.47;53.30;100095.56;5014588;28;1139;-55
2023/04/25 02:30:36;;;;;;;;;;;;;;;16.60;55.43;100089.97;5014529;28;1147;-53
2023/04/25 02:33:04;;;;;;;;;;;;;;;16.35;55.75;100102.03;5014537;28;1134;-54
2023/04/25 02:35:30;;;;;;;;;;;;;;;16.30;56.10;100086.44;5015224;28;1286;-53
2023/04/25 02:37:55;;;;;;;;;;;;;;;17.74;52.82;100079.22;5023443;28;1019;-50
2023/04/25 02:40:21;;;;;;;;;;;;;;;16.81;55.06;100079.59;5015935;28;1146;-53
2023/04/25 02:42:46;;;;;;;;;;;;;;;16.43;55.56;100082.19;5016861;28;1965;-54
2023/04/25 02:45:12;;;;;;;;;;;;;;;16.29;55.59;100079.31;5019513;28;1067;-52
2023/04/25 02:47:37;;;;;;;;;;;;;;;17.01;54.77;100075.84;5020228;28;1071;-49
2023/04/25 02:50:03;;;;;;;;;;;;;;;17.20;53.94;100075.06;5016484;28;1143;-53
2023/04/25 02:52:29;;;;;;;;;;;;;;;16.49;55.52;100075.53;5010331;28;1247;-53
2023/04/25 02:55:02;;;;;;;;;;;;;;;16.26;55.69;100068.91;5018202;28;1335;-53
2023/04/25 02:57:29;;;;;;;;;;;;;;;16.41;55.87;100077.00;5018171;28;1210;-50
2023/04/25 02:59:55;;;;;;;;;;;;;;;17.16;54.31;100069.31;5020444;28;1302;-53
2023/04/25 03:02:21;;;;;;;;;;;;;;;16.48;55.63;100062.94;5024471;28;1971;-49
2023/04/25 03:04:46;;;;;;;;;;;;;;;16.24;55.82;100068.38;5017919;28;1113;-48
2023/04/25 03:07:12;;;;;;;;;;;;;;;16.08;55.93;100059.47;5018044;28;1610;-51
2023/04/25 03:09:37;;;;;;;;;;;;;;;17.20;54.50;100070.38;5017314;28;1588;-56
2023/04/25 03:12:03;;;;;;;;;;;;;;;17.02;54.41;100060.16;5020043;28;1209;-54
2023/04/25 03:14:30;;;;;;;;;;;;;;;16.48;55.41;100065.69;5017895;28;1140;-51
2023/04/25 03:16:56;;;;;;;;;;;;;;;16.20;55.67;100059.09;5021687;28;1643;-59
2023/04/25 03:19:22;;;;;;;;;;;;;;;16.06;56.01;100058.94;5050885;28;1121;-59
2023/04/25 03:21:47;;;;;;;;;;;;;;;17.14;54.61;100054.22;5013590;28;1902;-60
2023/04/25 03:24:13;;;;;;;;;;;;;;;17.36;53.60;100045.41;5026367;28;1159;-59
2023/04/25 03:26:38;;;;;;;;;;;;;;;16.64;55.25;100052.63;5018996;28;1131;-59
2023/04/25 03:29:04;;;;;;;;;;;;;;;16.34;55.71;100060.06;5018517;28;1083;-59
2023/04/25 03:31:30;;;;;;;;;;;;;;;16.16;55.55;100052.53;5010791;28;1048;-59
2023/04/25 03:33:56;;;;;;;;;;;;;;;16.42;55.89;100061.34;5011828;28;1223;-59
2023/04/25 03:36:23;;;;;;;;;;;;;;;17.74;52.79;100051.75;5016635;28;1247;-58
2023/04/25 03:38:48;;;;;;;;;;;;;;;16.77;55.08;100060.16;5001818;28;1306;-58
2023/04/25 03:41:15;;;;;;;;;;;;;;;16.45;55.42;100054.47;5000966;28;1910;-60
2023/04/25 03:43:45;;;;;;;;;;;;;;;16.16;55.88;100055.28;5029843;28;1194;-60
2023/04/25 03:46:12;;;;;;;;;;;;;;;16.46;55.89;100050.63;5017376;28;1641;-60
2023/04/25 03:48:39;;;;;;;;;;;;;;;17.78;52.76;100047.28;5022289;28;1342;-62
2023/04/25 03:51:06;;;;;;;;;;;;;;;16.80;54.98;100052.44;5020391;28;1151;-58
2023/04/25 03:53:34;;;;;;;;;;;;;;;16.42;55.73;100047.63;5015984;28;1443;-57
2023/04/25 03:56:32;;;;;;;;;;;;;;;16.10;56.10;100048.22;4988683;28;1460;-62
2023/04/25 03:59:05;;;;;;;;;;;;;;;16.10;55.79;100049.03;5044803;28;1402;-64
2023/04/25 04:01:30;;;;;;;;;;;;;;;17.58;53.51;100036.59;5014515;28;1977;-58
2023/04/25 04:03:56;;;;;;;;;;;;;;;16.86;54.87;100038.34;5013298;28;1119;-58
2023/04/25 04:06:23;;;;;;;;;;;;;;;16.38;55.58;100049.31;5015573;28;1345;-55
2023/04/25 04:08:55;;;;;;;;;;;;;;;16.13;55.97;100042.16;5020353;28;1290;-55
2023/04/25 04:11:21;;;;;;;;;;;;;;;16.98;55.01;100040.69;5016770;28;1331;-54
2023/04/25 04:13:46;;;;;;;;;;;;;;;17.02;54.56;100040.94;5029111;28;1138;-48
2023/04/25 04:16:12;;;;;;;;;;;;;;;16.41;55.82;100048.72;5016699;28;1127;-48
2023/04/25 04:18:38;;;;;;;;;;;;;;;16.15;56.03;100039.94;5016425;28;1255;-52
2023/04/25 04:21:04;;;;;;;;;;;;;;;16.52;56.04;100038.47;5016419;28;1986;-49
2023/04/25 04:23:33;;;;;;;;;;;;;;;17.53;53.13;100039.41;5022629;28;1275;-53
2023/04/25 04:25:59;;;;;;;;;;;;;;;16.67;55.37;100037.50;5039576;28;1237;-51
2023/04/25 04:28:26;;;;;;;;;;;;;;;16.33;55.66;100033.72;5017439;28;1040;-50
2023/04/25 04:31:00;;;;;;;;;;;;;;;16.15;55.83;100034.47;5017584;28;1098;-50
2023/04/25 04:33:27;;;;;;;;;;;;;;;16.42;55.88;100034.75;5016566;28;1363;-52
2023/04/25 04:35:58;;;;;;;;;;;;;;;17.67;53.11;100026.56;5017477;28;1193;-49
2023/04/25 04:38:25;;;;;;;;;;;;;;;16.73;55.28;100028.06;5016435;28;1324;-47
2023/04/25 04:40:53;;;;;;;;;;;;;;;16.37;55.92;100025.75;5016609;28;1914;-48
2023/04/25 04:43:55;;;;;;;;;;;;;;;16.24;56.52;100040.94;5007252;28;1281;-49
2023/04/25 04:46:40;;;;;;;;;;;;;;;17.47;53.72;100029.59;5017116;28;1083;-50
2023/04/25 04:49:38;;;;;;;;;;;;;;;16.53;55.63;100029.13;5012869;28;1543;-50
2023/04/25 04:52:26;;;;;;;;;;;;;;;16.29;55.93;100029.13;4998238;28;1180;-51
2023/04/25 04:55:21;;;;;;;;;;;;;;;16.07;56.15;100035.88;5007537;28;1112;-54
2023/04/25 04:58:01;;;;;;;;;;;;;;;16.94;55.38;100031.41;5016028;28;1209;-54
2023/04/25 05:00:38;;;;;;;;;;;;;;;17.13;54.25;100030.66;5005300;28;1497;-54
2023/04/25 05:03:27;;;;;;;;;;;;;;;16.40;56.17;100025.97;4969627;28;1146;-53
2023/04/25 05:06:12;;;;;;;;;;;;;;;17.21;54.27;100024.50;5008938;28;1169;-53
2023/04/25 05:08:52;;;;;;;;;;;;;;;16.37;53.71;100025.75;5016438;28;1052;-61
2023/04/25 05:11:18;;;;;;;;;;;;;;;16.05;52.63;100027.97;5017118;28;1064;-56
2023/04/25 05:14:19;;;;;;;;;;;;;;;15.98;50.80;100027.47;4982215;28;1468;-52
2023/04/25 05:17:13;;;;;;;;;;;;;;;16.93;53.55;100021.56;4977249;28;1164;-55
2023/04/25 05:20:01;;;;;;;;;;;;;;;16.22;52.67;100024.78;5010468;28;1346;-56
2023/04/25 05:22:52;;;;;;;;;;;;;;;15.98;51.03;100029.41;5001743;28;1973;-55
2023/04/25 05:25:24;;;;;;;;;;;;;;;16.02;50.24;100019.47;5020369;28;1921;-55
2023/04/25 05:28:10;;;;;;;;;;;;;;;17.04;53.13;100025.81;5016849;28;1347;-56
2023/04/25 05:30:46;;;;;;;;;;;;;;;16.34;52.28;100018.91;5015411;28;1401;-55
2023/04/25 05:33:30;;;;;;;;;;;;;;;16.15;50.45;100016.06;5016792;28;1067;-55
2023/04/25 05:35:55;;;;;;;;;;;;;;;16.97;52.32;100017.13;5014945;28;1306;-55
2023/04/25 05:38:23;;;;;;;;;;;;;;;16.36;51.90;100005.72;5018396;28;1924;-54
2023/04/25 05:41:24;;;;;;;;;;;;;;;16.08;50.49;100013.66;5015736;28;1972;-55
2023/04/25 05:44:15;;;;;;;;;;;;;;;15.95;49.23;100008.88;4999289;28;1206;-48
2023/04/25 05:46:49;;;;;;;;;;;;;;;17.22;51.60;100006.88;5016340;28;1388;-47
2023/04/25 05:49:34;;;;;;;;;;;;;;;16.56;51.86;100003.84;5005341;28;1220;-53
2023/04/25 05:52:14;;;;;;;;;;;;;;;16.31;50.49;99992.03;5014925;28;1044;-47
2023/04/25 05:54:47;;;;;;;;;;;;;;;16.08;49.72;99996.41;5014935;28;1048;-53
2023/04/25 05:57:20;;;;;;;;;;;;;;;16.08;49.66;100005.44;5015132;28;1134;-45
2023/04/25 05:59:47;;;;;;;;;;;;;;;17.25;51.22;99995.28;5015178;28;1136;-47
2023/04/25 06:02:14;;;;;;;;;;;;;;;16.45;51.34;100000.38;5021328;28;1914;-52
2023/04/25 06:04:40;;;;;;;;;;;;;;;16.18;50.23;99992.75;5031581;28;1181;-54
2023/04/25 06:07:06;;;;;;;;;;;;;;;16.50;50.49;99991.31;5014757;28;1399;-54
2023/04/25 06:09:34;;;;;;;;;;;;;;;16.60;50.74;99985.69;5026785;28;1431;-53
2023/04/25 06:12:00;;;;;;;;;;;;;;;16.46;51.06;99991.06;5016218;28;1194;-53
2023/04/25 06:14:26;;;;;;;;;;;;;;;17.62;51.13;99975.19;5042177;28;1393;-53
2023/04/25 06:16:52;;;;;;;;;;;;;;;16.79;51.11;99983.00;5016634;28;1300;-54
2023/04/25 06:19:18;;;;;;;;;;;;;;;16.53;49.98;99975.06;5019021;28;1531;-50
2023/04/25 06:21:43;;;;;;;;;;;;;;;16.36;49.23;99967.28;5021351;28;1906;-53
2023/04/25 06:24:09;;;;;;;;;;;;;;;16.84;50.09;99973.84;5018870;28;1059;-51
2023/04/25 06:26:35;;;;;;;;;;;;;;;16.69;50.35;99972.97;5024956;28;1118;-48
2023/04/25 06:29:00;;;;;;;;;;;;;;;16.36;49.78;99975.53;5018812;28;1115;-51
2023/04/25 06:31:26;;;;;;;;;;;;;;;16.20;48.79;99966.66;5019834;28;1059;-53
2023/04/25 06:33:54;;;;;;;;;;;;;;;16.71;49.52;99976.22;5018582;28;1426;-53
2023/04/25 06:36:24;;;;;;;;;;;;;;;16.58;50.16;99972.25;5019355;28;1082;-49
2023/04/25 06:38:52;;;;;;;;;;;;;;;16.28;49.36;99970.69;5018955;28;1144;-49
2023/04/25 06:41:17;;;;;;;;;;;;;;;17.15;49.83;99962.47;5014481;28;2023;-54
2023/04/25 06:43:43;;;;;;;;;;;;;;;16.43;50.10;99962.28;5006527;28;1348;-53
2023/04/25 06:46:17;;;;;;;;;;;;;;;16.62;50.11;99966.19;5018282;28;1235;-51
2023/04/25 06:48:46;;;;;;;;;;;;;;;16.87;50.62;99962.28;5018046;28;1307;-51
2023/04/25 06:51:13;;;;;;;;;;;;;;;16.43;49.82;99970.50;5021861;28;1091;-46
2023/04/25 06:53:39;;;;;;;;;;;;;;;16.97;50.30;99964.94;5018258;28;1230;-47
2023/04/25 06:56:08;;;;;;;;;;;;;;;16.81;50.11;99963.47;5018687;28;1088;-50
2023/04/25 06:58:52;;;;;;;;;;;;;;;16.47;49.40;99961.72;5014577;28;1004;-54
2023/04/25 07:01:29;;;;;;;;;;;;;;;16.36;48.68;99961.81;5010788;28;1910;-50
2023/04/25 07:03:57;;;;;;;;;;;;;;;16.52;49.09;99958.88;5028848;28;1127;-51
2023/04/25 07:06:25;;;;;;;;;;;;;;;16.74;50.10;99948.16;5015918;28;1223;-44
2023/04/25 07:08:51;;;;;;;;;;;;;;;16.47;49.14;99964.44;5010225;28;1138;-50
2023/04/25 07:11:17;;;;;;;;;;;;;;;16.24;48.53;99950.41;5041355;28;1548;-49
2023/04/25 07:13:42;;;;;;;;;;;;;;;16.29;48.42;99953.13;5016327;28;1048;-50
2023/04/25 07:16:08;;;;;;;;;;;;;;;17.00;49.57;99947.84;5022189;28;1059;-54
2023/04/25 07:18:35;;;;;;;;;;;;;;;16.42;49.45;99952.44;5013836;28;1271;-48
2023/04/25 07:21:01;;;;;;;;;;;;;;;16.23;48.68;99948.81;5018682;28;1905;-55
2023/04/25 07:23:27;;;;;;;;;;;;;;;16.69;49.30;99945.50;5021441;28;1479;-56
2023/04/25 07:25:54;;;;;;;;;;;;;;;16.75;49.65;99944.31;5019755;28;1198;-51
2023/04/25 07:28:23;;;;;;;;;;;;;;;16.43;48.92;99942.25;5016717;28;1414;-43
2023/04/25 07:30:48;;;;;;;;;;;;;;;16.85;49.47;99931.56;5009711;28;1080;-50
2023/04/25 07:33:14;;;;;;;;;;;;;;;16.79;49.65;99930.00;5018809;28;1178;-45
2023/04/25 07:35:39;;;;;;;;;;;;;;;16.37;48.97;99929.72;5017948;28;1162;-48
2023/04/25 07:38:06;;;;;;;;;;;;;;;16.31;48.34;99926.19;5019685;28;2553;-47
2023/04/25 07:40:32;;;;;;;;;;;;;;;16.08;47.93;99923.16;5026954;28;1145;-47
2023/04/25 07:43:04;;;;;;;;;;;;;;;16.76;48.49;99924.00;5017295;28;1993;-47
2023/04/25 07:45:52;;;;;;;;;;;;;;;16.83;49.42;99925.53;5018249;28;1409;-46
2023/04/25 07:48:18;;;;;;;;;;;;;;;16.52;48.74;99918.56;5017728;28;1308;-52
2023/04/25 07:50:45;;;;;;;;;;;;;;;16.33;48.12;99910.28;5022944;28;1266;-47
2023/04/25 07:53:11;;;;;;;;;;;;;;;16.68;49.24;99905.44;5019079;28;1143;-44
2023/04/25 07:55:44;;;;;;;;;;;;;;;16.79;49.46;99894.31;5017425;28;1356;-47
2023/04/25 07:58:21;;;;;;;;;;;;;;;16.33;48.84;99915.75;5017429;28;1160;-49
2023/04/25 08:00:48;;;;;;;;;;;;;;;17.24;49.20;99900.25;5015706;28;1910;-49
2023/04/25 08:03:43;;;;;;;;;;;;;;;16.56;49.21;99902.28;5012807;28;1232;-48
2023/04/25 08:06:15;;;;;;;;;;;;;;;16.78;49.32;99907.22;5012938;28;1371;-50
2023/04/25 08:08:52;;;;;;;;;;;;;;;16.88;49.40;99915.34;5017354;28;1297;-49
2023/04/25 08:11:21;;;;;;;;;;;;;;;16.45;49.24;99920.00;5005426;28;1108;-55
2023/04/25 08:13:46;;;;;;;;;;;;;;;16.97;49.23;99910.00;5016726;28;1296;-46
2023/04/25 08:16:12;;;;;;;;;;;;;;;16.65;49.63;99911.53;5026381;28;1117;-42
2023/04/25 08:18:38;;;;;;;;;;;;;;;16.67;49.10;99913.97;5016878;28;1287;-45
2023/04/25 08:21:03;;;;;;;;;;;;;;;17.60;49.03;99916.97;5017598;28;1972;-45
2023/04/25 08:23:29;;;;;;;;;;;;;;;16.79;49.64;99919.00;5021864;28;1187;-52
2023/04/25 08:26:04;;;;;;;;;;;;;;;16.64;48.86;99918.13;5016867;28;1221;-48
2023/04/25 08:28:33;;;;;;;;;;;;;;;16.48;47.93;99928.47;5016749;28;1284;-49
2023/04/25 08:31:00;;;;;;;;;;;;;;;16.40;47.39;99916.22;5016887;28;1128;-43
2023/04/25 08:33:33;;;;;;;;;;;;;;;17.52;48.93;99927.84;5016743;28;1174;-51
2023/04/25 08:36:05;;;;;;;;;;;;;;;16.84;49.24;99927.19;5016655;28;1362;-54
2023/04/25 08:38:31;;;;;;;;;;;;;;;16.53;48.55;99924.84;5016521;28;1384;-51
2023/04/25 08:40:57;;;;;;;;;;;;;;;16.36;48.16;99928.88;5015322;28;1978;-44
2023/04/25 08:43:23;;;;;;;;;;;;;;;17.41;48.74;99916.19;5015784;28;1532;-45
2023/04/25 08:45:49;;;;;;;;;;;;;;;16.74;49.04;99920.72;5016600;28;1417;-51
2023/04/25 08:48:29;;;;;;;;;;;;;;;16.54;48.51;99923.75;5016528;28;1226;-48
2023/04/25 08:50:58;;;;;;;;;;;;;;;16.32;48.01;99924.28;5004245;28;1219;-52
2023/04/25 08:53:31;;;;;;;;;;;;;;;16.16;47.62;99924.47;5012659;28;1730;-48
2023/04/25 08:55:59;;;;;;;;;;;;;;;16.96;48.20;99926.75;5028928;28;1354;-47
2023/04/25 08:58:24;;;;;;;;;;;;;;;17.03;49.42;99932.72;5017328;28;1194;-53
2023/04/25 09:00:50;;;;;;;;;;;;;;;16.63;48.93;99930.19;5016207;28;1910;-54
2023/04/25 09:03:20;;;;;;;;;;;;;;;17.12;49.47;99928.16;5018539;28;1333;-45
2023/04/25 09:05:47;;;;;;;;;;;;;;;16.81;49.24;99933.28;5016059;28;1406;-49
2023/04/25 09:08:14;;;;;;;;;;;;;;;16.49;48.53;99930.09;5016052;28;1123;-50
2023/04/25 09:10:40;;;;;;;;;;;;;;;16.38;48.03;99929.41;5015902;28;1902;-47
2023/04/25 09:13:11;;;;;;;;;;;;;;;16.28;47.37;99925.97;5015988;28;1166;-52
2023/04/25 09:15:57;;;;;;;;;;;;;;;16.32;47.57;99924.28;5026993;28;1195;-54
2023/04/25 09:18:56;;;;;;;;;;;;;;;16.72;48.92;99916.66;5016191;28;1143;-55
2023/04/25 09:21:22;;;;;;;;;;;;;;;17.43;48.86;99919.44;5002801;28;2007;-51
2023/04/25 09:23:49;;;;;;;;;;;;;;;18.24;49.17;99915.53;5013825;28;1563;-47
2023/04/25 09:26:15;;;;;;;;;;;;;;;17.07;50.25;99911.78;5009456;28;1341;-51
2023/04/25 09:28:42;;;;;;;;;;;;;;;16.81;49.41;99916.81;5010301;28;813;-45
2023/04/25 09:31:12;;;;;;;;;;;;;;;16.65;48.53;99910.69;5015915;28;1134;-46
2023/04/25 09:33:45;;;;;;;;;;;;;;;16.57;47.71;99914.91;5013092;28;1549;-49
2023/04/25 09:36:11;;;;;;;;;;;;;;;16.56;47.96;99919.59;5014510;28;1325;-44
2023/04/25 09:38:49;;;;;;;;;;;;;;;16.82;49.33;99907.47;5015918;28;1198;-46
2023/04/25 09:41:24;;;;;;;;;;;;;;;16.52;48.28;99899.34;5022405;28;1979;-46
2023/04/25 09:43:50;;;;;;;;;;;;;;;16.45;47.61;99900.81;5009795;28;957;-49
2023/04/25 09:46:17;;;;;;;;;;;;;;;16.85;48.46;99904.91;5012883;28;1287;-56
2023/04/25 09:48:49;;;;;;;;;;;;;;;16.67;48.93;99895.56;5016009;28;1427;-52
2023/04/25 09:51:17;;;;;;;;;;;;;;;16.40;48.14;99897.00;5019095;28;1151;-49
2023/04/25 09:53:51;;;;;;;;;;;;;;;16.24;47.81;99901.88;5018773;28;1111;-55
2023/04/25 09:56:37;;;;;;;;;;;;;;;16.92;48.24;99899.09;5002720;28;1065;-46
2023/04/25 09:59:05;;;;;;;;;;;;;;;17.03;49.22;99889.59;5015299;28;1592;-46
2023/04/25 10:01:32;;;;;;;;;;;;;;;16.63;48.94;99885.47;5015112;28;1898;-48
2023/04/25 10:04:06;;;;;;;;;;;;;;;16.47;48.16;99884.88;5023666;28;1210;-50
2023/04/25 10:06:42;;;;;;;;;;;;;;;17.19;48.73;99886.59;5015481;28;1327;-52
2023/04/25 10:09:08;;;;;;;;;;;;;;;16.67;48.75;99881.84;5015478;28;1139;-44
2023/04/25 10:11:34;;;;;;;;;;;;;;;16.46;48.07;99875.00;5031585;28;1337;-54
2023/04/25 10:14:00;;;;;;;;;;;;;;;17.43;48.44;99870.81;5016560;28;1167;-48
2023/04/25 10:16:25;;;;;;;;;;;;;;;17.04;49.18;99865.66;5010238;28;982;-52
2023/04/25 10:18:51;;;;;;;;;;;;;;;16.69;48.71;99863.16;5014663;28;1313;-55
2023/04/25 10:21:16;;;;;;;;;;;;;;;16.57;48.18;99860.03;5018166;28;1902;-49
2023/04/25 10:23:42;;;;;;;;;;;;;;;16.47;47.32;99863.72;5016429;28;1106;-57
2023/04/25 10:26:12;;;;;;;;;;;;;;;16.36;47.10;99854.00;5015140;28;1083;-49
2023/04/25 10:28:59;;;;;;;;;;;;;;;16.97;48.08;99851.50;5022243;28;1314;-52
2023/04/25 10:31:25;;;;;;;;;;;;;;;16.70;48.01;99842.00;5016345;28;1201;-50
2023/04/25 10:33:51;;;;;;;;;;;;;;;17.92;48.61;99843.00;5015021;28;1160;-52
2023/04/25 10:36:23;;;;;;;;;;;;;;;17.73;49.85;99840.31;5015710;28;1170;-57
2023/04/25 10:38:52;;;;;;;;;;;;;;;17.04;49.63;99830.81;5016578;28;1078;-56
2023/04/25 10:41:21;;;;;;;;;;;;;;;16.85;48.48;99828.03;5017202;28;1894;-52
2023/04/25 10:43:47;;;;;;;;;;;;;;;16.70;48.03;99831.00;5014136;28;1330;-52
2023/04/25 10:46:25;;;;;;;;;;;;;;;16.58;47.62;99828.72;5007576;28;1029;-54
2023/04/25 10:49:01;;;;;;;;;;;;;;;16.53;47.12;99812.34;5002767;28;1187;-54
2023/04/25 10:51:28;;;;;;;;;;;;;;;16.38;46.67;99821.59;5016919;28;1071;-51
2023/04/25 10:53:59;;;;;;;;;;;;;;;16.37;46.70;99822.72;5023781;28;1103;-46
2023/04/25 10:56:25;;;;;;;;;;;;;;;17.22;48.43;99820.06;5015725;28;1036;-48
2023/04/25 10:58:51;;;;;;;;;;;;;;;16.77;48.86;99821.31;5016177;28;1115;-52
2023/04/25 11:01:20;;;;;;;;;;;;;;;16.58;48.15;99818.56;5015972;28;1902;-50
2023/04/25 11:03:48;;;;;;;;;;;;;;;17.02;48.43;99811.03;5019582;28;1122;-45
2023/04/25 11:06:17;;;;;;;;;;;;;;;16.87;48.90;99805.78;5020833;28;1043;-51
2023/04/25 11:08:47;;;;;;;;;;;;;;;16.62;48.45;99801.50;5019459;28;1130;-51
2023/04/25 11:11:13;;;;;;;;;;;;;;;16.50;47.77;99802.75;5019046;28;1174;-45
2023/04/25 11:13:38;;;;;;;;;;;;;;;16.48;47.24;99812.41;5019210;28;1046;-54
2023/04/25 11:16:06;;;;;;;;;;;;;;;16.48;47.47;99812.41;5023984;28;1107;-51
2023/04/25 11:18:34;;;;;;;;;;;;;;;17.14;48.72;99796.84;5026328;28;1070;-44
2023/04/25 11:20:59;;;;;;;;;;;;;;;16.60;48.77;99799.84;5019306;28;1912;-48
2023/04/25 11:23:26;;;;;;;;;;;;;;;16.56;47.78;99798.00;5026447;28;1070;-47
2023/04/25 11:25:52;;;;;;;;;;;;;;;16.44;47.35;99795.72;5019330;28;1114;-50
2023/04/25 11:28:22;;;;;;;;;;;;;;;16.45;47.21;99807.50;5023852;28;1080;-50
2023/04/25 11:30:50;;;;;;;;;;;;;;;17.20;48.56;99803.06;5005921;28;976;-48
2023/04/25 11:33:16;;;;;;;;;;;;;;;16.57;48.66;99808.69;5019128;28;1079;-57
2023/04/25 11:35:42;;;;;;;;;;;;;;;16.51;48.20;99806.31;5019252;28;1059;-55
2023/04/25 11:38:07;;;;;;;;;;;;;;;16.39;47.70;99810.31;5007201;28;1090;-51
2023/04/25 11:40:33;;;;;;;;;;;;;;;16.32;47.26;99809.88;5019485;28;1170;-52
2023/04/25 11:42:59;;;;;;;;;;;;;;;16.64;48.02;99800.09;5019220;28;1971;-54
2023/04/25 11:45:25;;;;;;;;;;;;;;;16.84;48.35;99792.66;5018676;28;1138;-56
2023/04/25 11:47:50;;;;;;;;;;;;;;;16.55;48.17;99796.38;5018569;28;1086;-55
2023/04/25 11:50:16;;;;;;;;;;;;;;;16.30;47.73;99795.66;5017518;28;1381;-52
2023/04/25 11:52:45;;;;;;;;;;;;;;;17.44;48.30;99792.72;5026198;28;1068;-53
2023/04/25 11:55:17;;;;;;;;;;;;;;;16.90;49.20;99780.47;5019265;28;1067;-49
2023/04/25 11:57:43;;;;;;;;;;;;;;;16.63;48.62;99790.22;5018587;28;1035;-57
2023/04/25 12:00:12;;;;;;;;;;;;;;;16.54;48.07;99772.81;5017473;28;1134;-44
2023/04/25 12:02:48;;;;;;;;;;;;;;;17.15;48.46;99764.69;5018522;28;1897;-53
2023/04/25 12:05:15;;;;;;;;;;;;;;;16.88;49.25;99771.72;5018787;28;1138;-53
2023/04/25 12:07:41;;;;;;;;;;;;;;;16.68;48.68;99764.63;5018129;28;1162;-53
2023/04/25 12:10:07;;;;;;;;;;;;;;;17.47;48.91;99765.75;5018328;28;1163;-47
2023/04/25 12:12:33;;;;;;;;;;;;;;;16.86;48.97;99763.78;5018419;28;1157;-49
2023/04/25 12:15:09;;;;;;;;;;;;;;;16.56;48.66;99760.41;5018215;28;1159;-51
2023/04/25 12:17:35;;;;;;;;;;;;;;;16.60;47.75;99763.38;5022109;28;1313;-43
2023/04/25 12:20:05;;;;;;;;;;;;;;;16.41;47.28;99757.88;5018857;28;1238;-48
2023/04/25 12:22:31;;;;;;;;;;;;;;;17.24;48.49;99760.94;5024082;28;1973;-46
2023/04/25 12:24:58;;;;;;;;;;;;;;;16.73;48.73;99761.78;5018249;28;1218;-47
2023/04/25 12:27:23;;;;;;;;;;;;;;;16.50;48.13;99761.59;5017896;28;1071;-49
2023/04/25 12:29:55;;;;;;;;;;;;;;;17.06;48.53;99757.13;5003725;28;1656;-51
2023/04/25 12:32:21;;;;;;;;;;;;;;;16.98;49.29;99755.09;5006416;28;791;-44
2023/04/25 12:34:46;;;;;;;;;;;;;;;16.65;48.52;99768.78;5017851;28;1102;-46
2023/04/25 12:37:12;;;;;;;;;;;;;;;16.57;47.97;99762.03;5013433;28;1028;-44
2023/04/25 12:39:38;;;;;;;;;;;;;;;16.47;47.40;99756.72;5013568;28;1143;-47
2023/04/25 12:42:03;;;;;;;;;;;;;;;17.46;48.70;99764.97;5024466;28;1914;-43
2023/04/25 12:44:29;;;;;;;;;;;;;;;17.06;49.16;99756.34;5017750;28;1142;-47
2023/04/25 12:46:55;;;;;;;;;;;;;;;16.73;48.31;99761.78;5017154;28;1172;-49
2023/04/25 12:49:20;;;;;;;;;;;;;;;16.52;48.15;99766.78;5005519;28;1560;-48
2023/04/25 12:51:46;;;;;;;;;;;;;;;16.35;47.54;99753.59;5007115;28;1168;-52
2023/04/25 12:54:12;;;;;;;;;;;;;;;17.41;48.52;99751.31;5023627;28;945;-48
2023/04/25 12:56:37;;;;;;;;;;;;;;;16.71;48.86;99751.09;5017668;28;1218;-49
2023/04/25 12:59:03;;;;;;;;;;;;;;;17.51;48.81;99750.28;5017682;28;1116;-49
2023/04/25 13:01:28;;;;;;;;;;;;;;;17.49;49.56;99747.03;5016956;28;1972;-50
2023/04/25 13:03:54;;;;;;;;;;;;;;;16.90;49.35;99742.88;5017154;28;1209;-50